sensor_id;sensor_type;location;lat;lon;timestamp;P1;durP1;ratioP1;P2;durP2;ratioP2
4895;SDS011;2463;49.948;8.472;2023-03-12T00:00:03;100.70;;;7.97;;
4895;SDS011;2463;49.948;8.472;2023-03-12T00:02:33;97.22;;;7.95;;
4895;SDS011;2463;49.948;8.472;2023-03-12T00:05:00;97.80;;;9.15;;
4895;SDS011;2463;49.948;8.472;2023-03-12T00:07:27;96.47;;;8.02;;
4895;SDS011;2463;49.948;8.472;2023-03-12T00:09:54;107.68;;;8.30;;
4895;SDS011;2463;49.948;8.472;2023-03-12T00:12:20;96.07;;;8.57;;
4895;SDS011;2463;49.948;8.472;2023-03-12T00:14:47;96.15;;;7.55;;
4895;SDS011;2463;49.948;8.472;2023-03-12T00:17:14;96.95;;;7.93;;
4895;SDS011;2463;49.948;8.472;2023-03-12T00:19:40;97.90;;;8.90;;
4895;SDS011;2463;49.948;8.472;2023-03-12T00:22:07;97.07;;;8.15;;
4895;SDS011;2463;49.948;8.472;2023-03-12T00:24:40;96.63;;;7.65;;
4895;SDS011;2463;49.948;8.472;2023-03-12T00:27:07;100.15;;;8.68;;
4895;SDS011;2463;49.948;8.472;2023-03-12T00:29:34;95.47;;;7.85;;
4895;SDS011;2463;49.948;8.472;2023-03-12T00:32:01;99.38;;;8.70;;
4895;SDS011;2463;49.948;8.472;2023-03-12T00:34:27;95.78;;;7.82;;
4895;SDS011;2463;49.948;8.472;2023-03-12T00:36:54;96.03;;;8.20;;
4895;SDS011;2463;49.948;8.472;2023-03-12T00:39:21;96.50;;;8.90;;
4895;SDS011;2463;49.948;8.472;2023-03-12T00:41:47;96.03;;;7.90;;
4895;SDS011;2463;49.948;8.472;2023-03-12T00:44:14;96.03;;;8.35;;
4895;SDS011;2463;49.948;8.472;2023-03-12T00:46:40;99.57;;;8.75;;
4895;SDS011;2463;49.948;8.472;2023-03-12T00:49:07;100.95;;;10.23;;
4895;SDS011;2463;49.948;8.472;2023-03-12T00:51:34;97.90;;;8.20;;
4895;SDS011;2463;49.948;8.472;2023-03-12T00:54:01;97.03;;;8.07;;
4895;SDS011;2463;49.948;8.472;2023-03-12T00:56:27;95.60;;;8.40;;
4895;SDS011;2463;49.948;8.472;2023-03-12T00:58:54;100.03;;;9.88;;
4895;SDS011;2463;49.948;8.472;2023-03-12T01:01:21;100.35;;;9.65;;
4895;SDS011;2463;49.948;8.472;2023-03-12T01:03:48;97.28;;;8.65;;
4895;SDS011;2463;49.948;8.472;2023-03-12T01:06:17;98.05;;;8.25;;
4895;SDS011;2463;49.948;8.472;2023-03-12T01:08:43;103.30;;;9.05;;
4895;SDS011;2463;49.948;8.472;2023-03-12T01:11:18;98.50;;;9.05;;
4895;SDS011;2463;49.948;8.472;2023-03-12T01:13:45;98.78;;;9.20;;
4895;SDS011;2463;49.948;8.472;2023-03-12T01:16:12;98.60;;;9.45;;
4895;SDS011;2463;49.948;8.472;2023-03-12T01:18:39;98.50;;;9.60;;
4895;SDS011;2463;49.948;8.472;2023-03-12T01:21:05;98.40;;;9.60;;
4895;SDS011;2463;49.948;8.472;2023-03-12T01:23:32;102.47;;;10.32;;
4895;SDS011;2463;49.948;8.472;2023-03-12T01:25:59;96.03;;;8.90;;
4895;SDS011;2463;49.948;8.472;2023-03-12T01:28:26;97.88;;;9.68;;
4895;SDS011;2463;49.948;8.472;2023-03-12T01:30:52;97.57;;;8.13;;
4895;SDS011;2463;49.948;8.472;2023-03-12T01:33:19;98.80;;;8.30;;
4895;SDS011;2463;49.948;8.472;2023-03-12T01:35:48;95.95;;;8.63;;
4895;SDS011;2463;49.948;8.472;2023-03-12T01:38:16;98.75;;;9.60;;
4895;SDS011;2463;49.948;8.472;2023-03-12T01:40:44;101.35;;;8.95;;
4895;SDS011;2463;49.948;8.472;2023-03-12T01:43:33;96.32;;;8.43;;
4895;SDS011;2463;49.948;8.472;2023-03-12T01:51:29;98.35;;;8.90;;
4895;SDS011;2463;49.948;8.472;2023-03-12T01:54:00;98.13;;;8.95;;
4895;SDS011;2463;49.948;8.472;2023-03-12T01:56:31;99.10;;;9.25;;
4895;SDS011;2463;49.948;8.472;2023-03-12T01:59:01;96.38;;;8.65;;
4895;SDS011;2463;49.948;8.472;2023-03-12T02:01:32;97.75;;;9.73;;
4895;SDS011;2463;49.948;8.472;2023-03-12T02:03:59;98.65;;;8.95;;
4895;SDS011;2463;49.948;8.472;2023-03-12T02:06:37;99.05;;;8.63;;
4895;SDS011;2463;49.948;8.472;2023-03-12T02:09:09;101.85;;;10.30;;
4895;SDS011;2463;49.948;8.472;2023-03-12T02:11:38;98.78;;;10.20;;
4895;SDS011;2463;49.948;8.472;2023-03-12T02:14:04;101.05;;;9.60;;
4895;SDS011;2463;49.948;8.472;2023-03-12T02:16:31;104.25;;;9.85;;
4895;SDS011;2463;49.948;8.472;2023-03-12T02:18:59;96.25;;;9.07;;
4895;SDS011;2463;49.948;8.472;2023-03-12T02:21:28;98.55;;;9.38;;
4895;SDS011;2463;49.948;8.472;2023-03-12T02:24:12;94.78;;;8.00;;
4895;SDS011;2463;49.948;8.472;2023-03-12T02:26:47;99.30;;;8.88;;
4895;SDS011;2463;49.948;8.472;2023-03-12T02:29:14;100.57;;;8.55;;
4895;SDS011;2463;49.948;8.472;2023-03-12T02:31:43;97.28;;;9.00;;
4895;SDS011;2463;49.948;8.472;2023-03-12T02:34:15;101.40;;;8.65;;
4895;SDS011;2463;49.948;8.472;2023-03-12T02:36:42;98.78;;;9.20;;
4895;SDS011;2463;49.948;8.472;2023-03-12T02:39:09;99.57;;;9.10;;
4895;SDS011;2463;49.948;8.472;2023-03-12T02:41:38;98.18;;;8.60;;
4895;SDS011;2463;49.948;8.472;2023-03-12T02:44:10;96.78;;;8.63;;
4895;SDS011;2463;49.948;8.472;2023-03-12T02:46:49;98.50;;;9.10;;
4895;SDS011;2463;49.948;8.472;2023-03-12T02:49:21;97.72;;;8.95;;
4895;SDS011;2463;49.948;8.472;2023-03-12T02:51:51;98.03;;;9.00;;
4895;SDS011;2463;49.948;8.472;2023-03-12T02:54:18;97.72;;;9.00;;
4895;SDS011;2463;49.948;8.472;2023-03-12T02:56:47;106.75;;;9.23;;
4895;SDS011;2463;49.948;8.472;2023-03-12T02:59:14;99.85;;;8.80;;
4895;SDS011;2463;49.948;8.472;2023-03-12T03:01:41;99.35;;;9.07;;
4895;SDS011;2463;49.948;8.472;2023-03-12T03:04:10;101.22;;;9.25;;
4895;SDS011;2463;49.948;8.472;2023-03-12T03:06:38;99.90;;;9.02;;
4895;SDS011;2463;49.948;8.472;2023-03-12T03:09:07;98.45;;;9.43;;
4895;SDS011;2463;49.948;8.472;2023-03-12T03:11:34;99.43;;;10.45;;
4895;SDS011;2463;49.948;8.472;2023-03-12T03:14:01;100.35;;;8.93;;
4895;SDS011;2463;49.948;8.472;2023-03-12T03:16:29;96.50;;;9.05;;
4895;SDS011;2463;49.948;8.472;2023-03-12T03:18:56;99.40;;;8.95;;
4895;SDS011;2463;49.948;8.472;2023-03-12T03:21:22;102.25;;;9.05;;
4895;SDS011;2463;49.948;8.472;2023-03-12T03:23:49;96.55;;;8.85;;
4895;SDS011;2463;49.948;8.472;2023-03-12T03:26:19;99.72;;;9.55;;
4895;SDS011;2463;49.948;8.472;2023-03-12T03:28:46;98.18;;;8.80;;
4895;SDS011;2463;49.948;8.472;2023-03-12T03:31:13;97.13;;;8.98;;
4895;SDS011;2463;49.948;8.472;2023-03-12T03:33:41;97.95;;;9.10;;
4895;SDS011;2463;49.948;8.472;2023-03-12T03:36:08;95.78;;;8.38;;
4895;SDS011;2463;49.948;8.472;2023-03-12T03:38:35;99.25;;;8.55;;
4895;SDS011;2463;49.948;8.472;2023-03-12T03:41:02;96.75;;;8.52;;
4895;SDS011;2463;49.948;8.472;2023-03-12T03:43:29;98.20;;;9.10;;
4895;SDS011;2463;49.948;8.472;2023-03-12T03:45:59;98.00;;;8.60;;
4895;SDS011;2463;49.948;8.472;2023-03-12T03:48:29;99.00;;;9.00;;
4895;SDS011;2463;49.948;8.472;2023-03-12T03:50:59;98.85;;;8.55;;
4895;SDS011;2463;49.948;8.472;2023-03-12T03:53:27;101.45;;;8.88;;
4895;SDS011;2463;49.948;8.472;2023-03-12T03:55:54;95.75;;;7.90;;
4895;SDS011;2463;49.948;8.472;2023-03-12T03:58:20;96.07;;;8.15;;
4895;SDS011;2463;49.948;8.472;2023-03-12T04:00:47;100.38;;;9.68;;
4895;SDS011;2463;49.948;8.472;2023-03-12T04:03:15;98.03;;;8.93;;
4895;SDS011;2463;49.948;8.472;2023-03-12T04:05:42;96.80;;;8.70;;
4895;SDS011;2463;49.948;8.472;2023-03-12T04:08:11;96.93;;;8.38;;
4895;SDS011;2463;49.948;8.472;2023-03-12T04:10:38;96.93;;;7.60;;
4895;SDS011;2463;49.948;8.472;2023-03-12T04:13:05;101.55;;;8.77;;
4895;SDS011;2463;49.948;8.472;2023-03-12T04:15:32;97.55;;;8.65;;
4895;SDS011;2463;49.948;8.472;2023-03-12T04:17:59;100.82;;;9.02;;
4895;SDS011;2463;49.948;8.472;2023-03-12T04:20:25;96.47;;;8.63;;
4895;SDS011;2463;49.948;8.472;2023-03-12T04:22:52;96.72;;;8.88;;
4895;SDS011;2463;49.948;8.472;2023-03-12T04:25:19;96.78;;;8.55;;
4895;SDS011;2463;49.948;8.472;2023-03-12T04:27:45;98.72;;;8.93;;
4895;SDS011;2463;49.948;8.472;2023-03-12T04:30:12;98.85;;;8.75;;
4895;SDS011;2463;49.948;8.472;2023-03-12T04:32:39;97.57;;;8.00;;
4895;SDS011;2463;49.948;8.472;2023-03-12T04:35:06;98.20;;;8.85;;
4895;SDS011;2463;49.948;8.472;2023-03-12T04:37:33;98.65;;;9.02;;
4895;SDS011;2463;49.948;8.472;2023-03-12T04:40:00;100.35;;;11.13;;
4895;SDS011;2463;49.948;8.472;2023-03-12T04:42:30;99.85;;;8.48;;
4895;SDS011;2463;49.948;8.472;2023-03-12T04:44:56;98.22;;;8.70;;
4895;SDS011;2463;49.948;8.472;2023-03-12T04:47:23;100.07;;;9.00;;
4895;SDS011;2463;49.948;8.472;2023-03-12T04:49:50;97.35;;;8.35;;
4895;SDS011;2463;49.948;8.472;2023-03-12T04:52:16;96.43;;;8.55;;
4895;SDS011;2463;49.948;8.472;2023-03-12T04:54:43;99.35;;;8.25;;
4895;SDS011;2463;49.948;8.472;2023-03-12T04:57:13;95.72;;;8.40;;
4895;SDS011;2463;49.948;8.472;2023-03-12T04:59:39;104.22;;;10.48;;
4895;SDS011;2463;49.948;8.472;2023-03-12T05:02:06;109.07;;;8.60;;
4895;SDS011;2463;49.948;8.472;2023-03-12T05:04:33;108.20;;;8.27;;
4895;SDS011;2463;49.948;8.472;2023-03-12T05:07:00;98.43;;;8.35;;
4895;SDS011;2463;49.948;8.472;2023-03-12T05:09:26;98.25;;;8.23;;
4895;SDS011;2463;49.948;8.472;2023-03-12T05:11:53;100.82;;;8.85;;
4895;SDS011;2463;49.948;8.472;2023-03-12T05:14:20;101.53;;;8.15;;
4895;SDS011;2463;49.948;8.472;2023-03-12T05:16:47;98.43;;;8.90;;
4895;SDS011;2463;49.948;8.472;2023-03-12T05:19:13;99.63;;;8.40;;
4895;SDS011;2463;49.948;8.472;2023-03-12T05:21:40;97.85;;;8.30;;
4895;SDS011;2463;49.948;8.472;2023-03-12T05:24:08;96.32;;;7.85;;
4895;SDS011;2463;49.948;8.472;2023-03-12T05:26:36;96.70;;;8.82;;
4895;SDS011;2463;49.948;8.472;2023-03-12T05:29:03;104.80;;;8.32;;
4895;SDS011;2463;49.948;8.472;2023-03-12T05:31:31;99.47;;;7.82;;
4895;SDS011;2463;49.948;8.472;2023-03-12T05:34:01;96.32;;;8.18;;
4895;SDS011;2463;49.948;8.472;2023-03-12T05:36:28;107.10;;;9.15;;
4895;SDS011;2463;49.948;8.472;2023-03-12T05:38:55;95.28;;;7.70;;
4895;SDS011;2463;49.948;8.472;2023-03-12T05:41:23;98.60;;;8.13;;
4895;SDS011;2463;49.948;8.472;2023-03-12T05:43:52;96.80;;;7.80;;
4895;SDS011;2463;49.948;8.472;2023-03-12T05:46:19;98.40;;;8.43;;
4895;SDS011;2463;49.948;8.472;2023-03-12T05:48:46;104.93;;;8.30;;
4895;SDS011;2463;49.948;8.472;2023-03-12T05:51:13;95.53;;;7.40;;
4895;SDS011;2463;49.948;8.472;2023-03-12T05:53:40;96.57;;;7.90;;
4895;SDS011;2463;49.948;8.472;2023-03-12T05:56:08;96.70;;;7.85;;
4895;SDS011;2463;49.948;8.472;2023-03-12T05:58:38;96.63;;;8.30;;
4895;SDS011;2463;49.948;8.472;2023-03-12T06:01:12;100.18;;;7.70;;
4895;SDS011;2463;49.948;8.472;2023-03-12T06:03:41;97.72;;;8.20;;
4895;SDS011;2463;49.948;8.472;2023-03-12T06:06:08;101.85;;;7.78;;
4895;SDS011;2463;49.948;8.472;2023-03-12T06:08:35;98.57;;;8.35;;
4895;SDS011;2463;49.948;8.472;2023-03-12T06:11:02;96.20;;;7.65;;
4895;SDS011;2463;49.948;8.472;2023-03-12T06:13:29;105.15;;;9.65;;
4895;SDS011;2463;49.948;8.472;2023-03-12T06:16:06;98.07;;;8.02;;
4895;SDS011;2463;49.948;8.472;2023-03-12T06:18:34;94.57;;;7.53;;
4895;SDS011;2463;49.948;8.472;2023-03-12T06:21:07;94.32;;;7.30;;
4895;SDS011;2463;49.948;8.472;2023-03-12T06:23:35;97.28;;;7.65;;
4895;SDS011;2463;49.948;8.472;2023-03-12T06:26:02;95.80;;;7.72;;
4895;SDS011;2463;49.948;8.472;2023-03-12T06:28:29;95.78;;;7.70;;
4895;SDS011;2463;49.948;8.472;2023-03-12T06:30:56;95.22;;;7.40;;
4895;SDS011;2463;49.948;8.472;2023-03-12T06:33:22;102.15;;;9.57;;
4895;SDS011;2463;49.948;8.472;2023-03-12T06:35:52;101.28;;;9.30;;
4895;SDS011;2463;49.948;8.472;2023-03-12T06:38:23;96.45;;;7.55;;
4895;SDS011;2463;49.948;8.472;2023-03-12T06:41:03;95.60;;;7.95;;
4895;SDS011;2463;49.948;8.472;2023-03-12T06:43:32;95.57;;;8.02;;
4895;SDS011;2463;49.948;8.472;2023-03-12T06:46:01;93.60;;;7.40;;
4895;SDS011;2463;49.948;8.472;2023-03-12T06:48:30;95.07;;;8.18;;
4895;SDS011;2463;49.948;8.472;2023-03-12T06:51:04;96.60;;;7.57;;
4895;SDS011;2463;49.948;8.472;2023-03-12T06:53:32;97.55;;;8.55;;
4895;SDS011;2463;49.948;8.472;2023-03-12T06:56:00;97.78;;;7.75;;
4895;SDS011;2463;49.948;8.472;2023-03-12T06:58:27;97.47;;;8.10;;
4895;SDS011;2463;49.948;8.472;2023-03-12T07:00:53;98.45;;;7.60;;
4895;SDS011;2463;49.948;8.472;2023-03-12T07:03:20;95.50;;;7.95;;
4895;SDS011;2463;49.948;8.472;2023-03-12T07:05:47;96.90;;;8.05;;
4895;SDS011;2463;49.948;8.472;2023-03-12T07:08:15;97.68;;;7.85;;
4895;SDS011;2463;49.948;8.472;2023-03-12T07:10:43;98.07;;;9.30;;
4895;SDS011;2463;49.948;8.472;2023-03-12T07:13:11;98.15;;;8.77;;
4895;SDS011;2463;49.948;8.472;2023-03-12T07:15:38;105.85;;;8.50;;
4895;SDS011;2463;49.948;8.472;2023-03-12T07:18:06;95.70;;;8.70;;
4895;SDS011;2463;49.948;8.472;2023-03-12T07:20:38;96.72;;;8.35;;
4895;SDS011;2463;49.948;8.472;2023-03-12T07:23:06;97.13;;;8.93;;
4895;SDS011;2463;49.948;8.472;2023-03-12T07:25:37;96.60;;;8.43;;
4895;SDS011;2463;49.948;8.472;2023-03-12T07:28:05;101.68;;;8.80;;
4895;SDS011;2463;49.948;8.472;2023-03-12T07:30:33;99.40;;;8.85;;
4895;SDS011;2463;49.948;8.472;2023-03-12T07:33:00;96.90;;;8.35;;
4895;SDS011;2463;49.948;8.472;2023-03-12T07:35:27;97.18;;;8.82;;
4895;SDS011;2463;49.948;8.472;2023-03-12T07:37:55;96.10;;;7.78;;
4895;SDS011;2463;49.948;8.472;2023-03-12T07:40:22;103.45;;;9.00;;
4895;SDS011;2463;49.948;8.472;2023-03-12T07:42:49;101.00;;;9.80;;
4895;SDS011;2463;49.948;8.472;2023-03-12T07:45:17;94.72;;;8.40;;
4895;SDS011;2463;49.948;8.472;2023-03-12T07:47:44;98.85;;;8.80;;
4895;SDS011;2463;49.948;8.472;2023-03-12T07:50:11;97.47;;;8.43;;
4895;SDS011;2463;49.948;8.472;2023-03-12T07:52:39;97.43;;;8.77;;
4895;SDS011;2463;49.948;8.472;2023-03-12T07:55:05;95.15;;;8.55;;
4895;SDS011;2463;49.948;8.472;2023-03-12T07:57:33;106.35;;;9.85;;
4895;SDS011;2463;49.948;8.472;2023-03-12T08:00:00;101.55;;;8.90;;
4895;SDS011;2463;49.948;8.472;2023-03-12T08:02:26;95.97;;;8.95;;
4895;SDS011;2463;49.948;8.472;2023-03-12T08:04:53;97.28;;;9.15;;
4895;SDS011;2463;49.948;8.472;2023-03-12T08:07:20;97.82;;;9.75;;
4895;SDS011;2463;49.948;8.472;2023-03-12T08:09:47;100.95;;;8.60;;
4895;SDS011;2463;49.948;8.472;2023-03-12T08:12:15;97.30;;;8.32;;
4895;SDS011;2463;49.948;8.472;2023-03-12T08:14:41;97.40;;;8.85;;
4895;SDS011;2463;49.948;8.472;2023-03-12T08:17:09;97.80;;;9.52;;
4895;SDS011;2463;49.948;8.472;2023-03-12T08:19:36;98.68;;;9.93;;
4895;SDS011;2463;49.948;8.472;2023-03-12T08:22:03;100.25;;;9.82;;
4895;SDS011;2463;49.948;8.472;2023-03-12T08:24:31;100.82;;;10.20;;
4895;SDS011;2463;49.948;8.472;2023-03-12T08:26:58;104.40;;;10.23;;
4895;SDS011;2463;49.948;8.472;2023-03-12T08:29:24;100.30;;;9.90;;
4895;SDS011;2463;49.948;8.472;2023-03-12T08:31:51;97.80;;;9.43;;
4895;SDS011;2463;49.948;8.472;2023-03-12T08:34:30;98.30;;;10.68;;
4895;SDS011;2463;49.948;8.472;2023-03-12T08:36:57;99.82;;;10.85;;
4895;SDS011;2463;49.948;8.472;2023-03-12T08:39:24;101.03;;;10.00;;
4895;SDS011;2463;49.948;8.472;2023-03-12T08:41:51;99.78;;;10.77;;
4895;SDS011;2463;49.948;8.472;2023-03-12T08:44:21;102.90;;;10.45;;
4895;SDS011;2463;49.948;8.472;2023-03-12T08:46:48;99.47;;;10.45;;
4895;SDS011;2463;49.948;8.472;2023-03-12T08:49:15;105.78;;;10.02;;
4895;SDS011;2463;49.948;8.472;2023-03-12T08:51:42;99.07;;;10.63;;
4895;SDS011;2463;49.948;8.472;2023-03-12T08:54:08;101.13;;;11.23;;
4895;SDS011;2463;49.948;8.472;2023-03-12T08:56:35;110.25;;;10.98;;
4895;SDS011;2463;49.948;8.472;2023-03-12T08:59:09;107.57;;;11.45;;
4895;SDS011;2463;49.948;8.472;2023-03-12T09:01:36;102.15;;;11.23;;
4895;SDS011;2463;49.948;8.472;2023-03-12T09:04:03;101.40;;;12.35;;
4895;SDS011;2463;49.948;8.472;2023-03-12T09:06:31;99.80;;;11.45;;
4895;SDS011;2463;49.948;8.472;2023-03-12T09:09:00;102.03;;;11.80;;
4895;SDS011;2463;49.948;8.472;2023-03-12T09:11:30;101.90;;;11.40;;
4895;SDS011;2463;49.948;8.472;2023-03-12T09:13:59;102.07;;;11.05;;
4895;SDS011;2463;49.948;8.472;2023-03-12T09:16:46;101.35;;;11.85;;
4895;SDS011;2463;49.948;8.472;2023-03-12T09:19:13;103.95;;;11.93;;
4895;SDS011;2463;49.948;8.472;2023-03-12T09:21:40;103.18;;;11.10;;
4895;SDS011;2463;49.948;8.472;2023-03-12T09:24:08;102.60;;;12.77;;
4895;SDS011;2463;49.948;8.472;2023-03-12T09:26:36;104.97;;;11.98;;
4895;SDS011;2463;49.948;8.472;2023-03-12T09:29:02;106.30;;;13.60;;
4895;SDS011;2463;49.948;8.472;2023-03-12T09:31:29;105.60;;;12.80;;
4895;SDS011;2463;49.948;8.472;2023-03-12T09:33:56;103.30;;;11.93;;
4895;SDS011;2463;49.948;8.472;2023-03-12T09:36:23;108.85;;;12.90;;
4895;SDS011;2463;49.948;8.472;2023-03-12T09:38:49;106.60;;;12.90;;
4895;SDS011;2463;49.948;8.472;2023-03-12T09:41:24;104.43;;;12.65;;
4895;SDS011;2463;49.948;8.472;2023-03-12T09:44:03;109.95;;;12.70;;
4895;SDS011;2463;49.948;8.472;2023-03-12T09:46:59;111.88;;;14.70;;
4895;SDS011;2463;49.948;8.472;2023-03-12T09:53:01;109.50;;;14.75;;
4895;SDS011;2463;49.948;8.472;2023-03-12T09:55:12;109.95;;;14.95;;
4895;SDS011;2463;49.948;8.472;2023-03-12T09:57:45;118.40;;;15.05;;
4895;SDS011;2463;49.948;8.472;2023-03-12T10:00:14;116.10;;;14.52;;
4895;SDS011;2463;49.948;8.472;2023-03-12T10:05:11;103.63;;;13.02;;
4895;SDS011;2463;49.948;8.472;2023-03-12T10:07:50;106.88;;;13.93;;
4895;SDS011;2463;49.948;8.472;2023-03-12T10:26:42;104.63;;;12.80;;
4895;SDS011;2463;49.948;8.472;2023-03-12T10:29:18;115.32;;;12.40;;
4895;SDS011;2463;49.948;8.472;2023-03-12T10:31:56;108.75;;;12.73;;
4895;SDS011;2463;49.948;8.472;2023-03-12T10:37:11;107.57;;;14.02;;
4895;SDS011;2463;49.948;8.472;2023-03-12T10:39:52;109.05;;;13.70;;
4895;SDS011;2463;49.948;8.472;2023-03-12T10:42:22;107.75;;;13.88;;
4895;SDS011;2463;49.948;8.472;2023-03-12T10:44:51;106.07;;;13.63;;
4895;SDS011;2463;49.948;8.472;2023-03-12T10:47:32;108.55;;;14.82;;
4895;SDS011;2463;49.948;8.472;2023-03-12T10:50:22;109.07;;;14.82;;
4895;SDS011;2463;49.948;8.472;2023-03-12T10:55:56;112.60;;;14.98;;
4895;SDS011;2463;49.948;8.472;2023-03-12T10:58:32;113.25;;;16.80;;
4895;SDS011;2463;49.948;8.472;2023-03-12T11:03:41;113.72;;;15.38;;
4895;SDS011;2463;49.948;8.472;2023-03-12T11:06:08;109.95;;;14.30;;
4895;SDS011;2463;49.948;8.472;2023-03-12T11:08:44;114.30;;;14.95;;
4895;SDS011;2463;49.948;8.472;2023-03-12T11:11:48;115.65;;;16.73;;
4895;SDS011;2463;49.948;8.472;2023-03-12T11:14:17;104.15;;;13.90;;
4895;SDS011;2463;49.948;8.472;2023-03-12T11:16:45;114.00;;;14.88;;
4895;SDS011;2463;49.948;8.472;2023-03-12T11:19:14;104.97;;;14.30;;
4895;SDS011;2463;49.948;8.472;2023-03-12T11:21:56;110.60;;;15.57;;
4895;SDS011;2463;49.948;8.472;2023-03-12T11:24:25;114.80;;;15.98;;
4895;SDS011;2463;49.948;8.472;2023-03-12T11:26:58;108.00;;;14.70;;
4895;SDS011;2463;49.948;8.472;2023-03-12T11:29:34;105.57;;;14.60;;
4895;SDS011;2463;49.948;8.472;2023-03-12T11:32:10;115.70;;;16.38;;
4895;SDS011;2463;49.948;8.472;2023-03-12T11:34:43;104.57;;;15.15;;
4895;SDS011;2463;49.948;8.472;2023-03-12T11:37:20;107.20;;;14.65;;
4895;SDS011;2463;49.948;8.472;2023-03-12T11:39:53;104.15;;;15.18;;
4895;SDS011;2463;49.948;8.472;2023-03-12T11:45:17;103.30;;;14.35;;
4895;SDS011;2463;49.948;8.472;2023-03-12T11:48:24;102.63;;;14.10;;
4895;SDS011;2463;49.948;8.472;2023-03-12T11:53:54;102.40;;;13.85;;
4895;SDS011;2463;49.948;8.472;2023-03-12T11:56:48;109.82;;;14.98;;
4895;SDS011;2463;49.948;8.472;2023-03-12T12:01:55;109.50;;;15.35;;
4895;SDS011;2463;49.948;8.472;2023-03-12T12:10:30;106.93;;;15.40;;
4895;SDS011;2463;49.948;8.472;2023-03-12T12:15:51;107.10;;;15.40;;
4895;SDS011;2463;49.948;8.472;2023-03-12T12:18:51;101.50;;;13.30;;
4895;SDS011;2463;49.948;8.472;2023-03-12T12:21:51;103.47;;;13.77;;
4895;SDS011;2463;49.948;8.472;2023-03-12T12:27:25;102.75;;;11.80;;
4895;SDS011;2463;49.948;8.472;2023-03-12T12:32:41;100.70;;;13.30;;
4895;SDS011;2463;49.948;8.472;2023-03-12T12:35:33;98.75;;;11.73;;
4895;SDS011;2463;49.948;8.472;2023-03-12T12:38:13;102.53;;;12.93;;
4895;SDS011;2463;49.948;8.472;2023-03-12T12:43:37;100.43;;;12.13;;
4895;SDS011;2463;49.948;8.472;2023-03-12T12:46:07;108.63;;;13.00;;
4895;SDS011;2463;49.948;8.472;2023-03-12T12:48:39;101.75;;;12.98;;
4895;SDS011;2463;49.948;8.472;2023-03-12T12:51:10;100.57;;;12.75;;
4895;SDS011;2463;49.948;8.472;2023-03-12T12:53:42;107.88;;;12.40;;
4895;SDS011;2463;49.948;8.472;2023-03-12T13:01:30;102.93;;;12.73;;
4895;SDS011;2463;49.948;8.472;2023-03-12T13:04:02;103.82;;;12.90;;
4895;SDS011;2463;49.948;8.472;2023-03-12T13:06:52;99.75;;;12.45;;
4895;SDS011;2463;49.948;8.472;2023-03-12T13:09:20;100.40;;;12.98;;
4895;SDS011;2463;49.948;8.472;2023-03-12T13:11:48;109.45;;;13.02;;
4895;SDS011;2463;49.948;8.472;2023-03-12T13:14:20;104.55;;;12.93;;
4895;SDS011;2463;49.948;8.472;2023-03-12T13:17:06;101.93;;;11.90;;
4895;SDS011;2463;49.948;8.472;2023-03-12T13:19:58;99.70;;;12.23;;
4895;SDS011;2463;49.948;8.472;2023-03-12T13:28:00;99.70;;;12.10;;
4895;SDS011;2463;49.948;8.472;2023-03-12T13:30:52;106.75;;;12.25;;
4895;SDS011;2463;49.948;8.472;2023-03-12T13:33:35;98.15;;;11.90;;
4895;SDS011;2463;49.948;8.472;2023-03-12T13:39:00;101.88;;;10.75;;
4895;SDS011;2463;49.948;8.472;2023-03-12T13:41:54;99.40;;;10.80;;
4895;SDS011;2463;49.948;8.472;2023-03-12T13:49:33;98.80;;;10.90;;
4895;SDS011;2463;49.948;8.472;2023-03-12T13:55:01;98.38;;;11.20;;
4895;SDS011;2463;49.948;8.472;2023-03-12T13:57:47;96.10;;;10.07;;
4895;SDS011;2463;49.948;8.472;2023-03-12T14:00:24;101.00;;;10.30;;
4895;SDS011;2463;49.948;8.472;2023-03-12T14:02:59;102.38;;;10.32;;
4895;SDS011;2463;49.948;8.472;2023-03-12T14:05:43;97.28;;;9.43;;
4895;SDS011;2463;49.948;8.472;2023-03-12T14:14:03;99.38;;;9.95;;
4895;SDS011;2463;49.948;8.472;2023-03-12T14:16:45;98.20;;;9.20;;
4895;SDS011;2463;49.948;8.472;2023-03-12T14:19:15;97.20;;;9.80;;
4895;SDS011;2463;49.948;8.472;2023-03-12T14:21:46;96.05;;;9.43;;
4895;SDS011;2463;49.948;8.472;2023-03-12T14:24:27;98.82;;;9.43;;
4895;SDS011;2463;49.948;8.472;2023-03-12T14:26:54;96.53;;;8.95;;
4895;SDS011;2463;49.948;8.472;2023-03-12T14:29:27;100.05;;;9.30;;
4895;SDS011;2463;49.948;8.472;2023-03-12T14:32:02;97.32;;;10.18;;
4895;SDS011;2463;49.948;8.472;2023-03-12T14:34:32;101.78;;;9.82;;
4895;SDS011;2463;49.948;8.472;2023-03-12T14:39:45;99.47;;;9.43;;
4895;SDS011;2463;49.948;8.472;2023-03-12T14:42:28;98.43;;;9.40;;
4895;SDS011;2463;49.948;8.472;2023-03-12T14:44:58;101.00;;;11.00;;
4895;SDS011;2463;49.948;8.472;2023-03-12T14:47:28;97.00;;;8.90;;
4895;SDS011;2463;49.948;8.472;2023-03-12T14:49:56;96.15;;;10.10;;
4895;SDS011;2463;49.948;8.472;2023-03-12T14:52:24;98.50;;;9.95;;
4895;SDS011;2463;49.948;8.472;2023-03-12T14:54:56;95.00;;;9.70;;
4895;SDS011;2463;49.948;8.472;2023-03-12T14:57:29;100.68;;;10.43;;
4895;SDS011;2463;49.948;8.472;2023-03-12T14:59:57;100.05;;;9.80;;
4895;SDS011;2463;49.948;8.472;2023-03-12T15:02:29;96.57;;;9.75;;
4895;SDS011;2463;49.948;8.472;2023-03-12T15:04:57;103.65;;;9.90;;
4895;SDS011;2463;49.948;8.472;2023-03-12T15:07:30;102.05;;;11.30;;
4895;SDS011;2463;49.948;8.472;2023-03-12T15:10:05;99.72;;;11.38;;
4895;SDS011;2463;49.948;8.472;2023-03-12T15:12:42;100.82;;;10.63;;
4895;SDS011;2463;49.948;8.472;2023-03-12T15:17:53;96.53;;;10.80;;
4895;SDS011;2463;49.948;8.472;2023-03-12T15:20:20;96.05;;;9.32;;
4895;SDS011;2463;49.948;8.472;2023-03-12T15:22:49;98.70;;;10.60;;
4895;SDS011;2463;49.948;8.472;2023-03-12T15:25:22;100.55;;;10.90;;
4895;SDS011;2463;49.948;8.472;2023-03-12T15:27:59;97.93;;;10.45;;
4895;SDS011;2463;49.948;8.472;2023-03-12T15:31:02;97.90;;;10.50;;
4895;SDS011;2463;49.948;8.472;2023-03-12T15:33:41;97.97;;;10.90;;
4895;SDS011;2463;49.948;8.472;2023-03-12T15:38:45;97.70;;;10.40;;
4895;SDS011;2463;49.948;8.472;2023-03-12T15:41:19;100.10;;;11.05;;
4895;SDS011;2463;49.948;8.472;2023-03-12T15:43:50;99.88;;;10.15;;
4895;SDS011;2463;49.948;8.472;2023-03-12T15:46:19;100.82;;;11.07;;
4895;SDS011;2463;49.948;8.472;2023-03-12T15:48:48;102.78;;;10.90;;
4895;SDS011;2463;49.948;8.472;2023-03-12T15:51:31;98.32;;;11.05;;
4895;SDS011;2463;49.948;8.472;2023-03-12T15:56:42;100.40;;;12.07;;
4895;SDS011;2463;49.948;8.472;2023-03-12T16:01:48;96.68;;;10.60;;
4895;SDS011;2463;49.948;8.472;2023-03-12T16:04:19;99.88;;;11.27;;
4895;SDS011;2463;49.948;8.472;2023-03-12T16:06:47;103.13;;;13.38;;
4895;SDS011;2463;49.948;8.472;2023-03-12T16:09:22;98.57;;;11.57;;
4895;SDS011;2463;49.948;8.472;2023-03-12T16:11:51;103.50;;;12.32;;
4895;SDS011;2463;49.948;8.472;2023-03-12T16:14:24;106.07;;;12.63;;
4895;SDS011;2463;49.948;8.472;2023-03-12T16:16:54;102.03;;;13.13;;
4895;SDS011;2463;49.948;8.472;2023-03-12T16:19:21;111.43;;;14.88;;
4895;SDS011;2463;49.948;8.472;2023-03-12T16:21:49;106.60;;;15.13;;
4895;SDS011;2463;49.948;8.472;2023-03-12T16:24:16;107.05;;;14.13;;
4895;SDS011;2463;49.948;8.472;2023-03-12T16:26:47;110.22;;;15.20;;
4895;SDS011;2463;49.948;8.472;2023-03-12T16:29:17;107.43;;;14.20;;
4895;SDS011;2463;49.948;8.472;2023-03-12T16:31:48;102.32;;;13.50;;
4895;SDS011;2463;49.948;8.472;2023-03-12T16:34:19;100.90;;;10.63;;
4895;SDS011;2463;49.948;8.472;2023-03-12T16:36:46;102.50;;;8.63;;
4895;SDS011;2463;49.948;8.472;2023-03-12T16:39:13;99.05;;;8.07;;
4895;SDS011;2463;49.948;8.472;2023-03-12T16:41:41;104.82;;;8.35;;
4895;SDS011;2463;49.948;8.472;2023-03-12T16:44:11;98.78;;;7.85;;
4895;SDS011;2463;49.948;8.472;2023-03-12T16:46:42;106.45;;;6.82;;
4895;SDS011;2463;49.948;8.472;2023-03-12T16:49:14;99.20;;;6.45;;
4895;SDS011;2463;49.948;8.472;2023-03-12T16:51:42;100.65;;;6.55;;